Time;durP1;ratioP1;P1;durP2;ratioP2;P2;SDS_P1;SDS_P2;PMS_P1;PMS_P2;Temp;Humidity;BMP_temperature;BMP_pressure;BME280_temperature;BME280_humidity;BME280_pressure;Samples;Min_cycle;Max_cycle;Signal;HPM_P1;HPM_P2
2022/10/10 00:01:24;;;;;;;3.13;2.15;;;;;;;10.82;71.30;98345.78;5110736;28;20032;-86
2022/10/10 00:03:50;;;;;;;3.10;2.10;;;;;;;10.83;71.87;98339.53;5109381;28;20024;-85
2022/10/10 00:06:17;;;;;;;4.47;2.13;;;;;;;10.79;71.81;98333.03;5109186;28;20028;-86
2022/10/10 00:08:44;;;;;;;3.28;2.35;;;;;;;10.83;71.47;98344.78;5105786;28;20047;-86
2022/10/10 00:11:14;;;;;;;4.50;2.22;;;;;;;10.88;71.78;98346.81;5107881;28;20024;-85
2022/10/10 00:13:41;;;;;;;5.05;2.20;;;;;;;10.86;71.93;98348.84;5107082;28;20556;-86
2022/10/10 00:16:06;;;;;;;4.18;2.42;;;;;;;10.83;70.35;98339.53;5102641;28;20027;-86
2022/10/10 00:18:32;;;;;;;3.75;2.10;;;;;;;10.85;71.73;98337.50;5112133;28;20081;-86
2022/10/10 00:20:58;;;;;;;4.63;2.33;;;;;;;10.81;71.75;98330.25;5107332;28;20031;-85
2022/10/10 00:23:23;;;;;;;4.43;2.20;;;;;;;10.83;71.68;98336.09;5099126;28;20047;-86
2022/10/10 00:25:49;;;;;;;5.03;2.50;;;;;;;10.72;71.91;98326.97;5102563;28;20083;-86
2022/10/10 00:28:16;;;;;;;3.40;2.03;;;;;;;10.70;71.00;98329.78;5108491;28;20032;-85
2022/10/10 00:30:42;;;;;;;4.75;2.47;;;;;;;10.61;72.11;98338.00;5110073;28;20035;-85
2022/10/10 00:33:07;;;;;;;2.55;2.00;;;;;;;10.62;72.80;98329.16;5101628;28;20165;-85
2022/10/10 00:35:33;;;;;;;4.60;1.90;;;;;;;10.61;72.43;98327.50;5127565;27;20084;-85
2022/10/10 00:38:01;;;;;;;3.65;2.30;;;;;;;10.49;72.13;98315.94;5109103;28;20467;-85
2022/10/10 00:40:26;;;;;;;3.50;2.10;;;;;;;10.48;72.55;98311.69;5105860;28;20038;-85
2022/10/10 00:42:52;;;;;;;3.22;2.08;;;;;;;10.55;72.94;98328.28;5103299;28;20028;-85
2022/10/10 00:45:47;;;;;;;4.47;2.40;;;;;;;10.47;71.80;98317.97;5106505;28;20104;-85
2022/10/10 00:48:18;;;;;;;4.65;2.38;;;;;;;10.31;73.05;98321.69;5105895;28;20031;-85
2022/10/10 00:50:54;;;;;;;5.60;2.50;;;;;;;10.23;72.95;98314.78;5118398;27;20046;-86
2022/10/10 00:53:37;;;;;;;4.40;2.53;;;;;;;10.07;74.39;98307.19;5103323;28;20066;-85
2022/10/10 00:56:04;;;;;;;3.30;2.08;;;;;;;10.12;73.65;98318.72;5102275;28;20031;-85
2022/10/10 00:58:32;;;;;;;3.70;2.45;;;;;;;10.15;74.55;98317.53;5110200;28;20039;-85
2022/10/10 01:00:58;;;;;;;3.40;2.35;;;;;;;10.20;75.64;98312.53;5106125;28;20038;-85
2022/10/10 01:03:23;;;;;;;6.13;2.63;;;;;;;10.24;74.93;98320.84;5102042;28;20028;-85
2022/10/10 01:05:50;;;;;;;2.30;2.10;;;;;;;10.22;74.51;98318.38;5105042;28;20035;-85
2022/10/10 01:08:18;;;;;;;4.90;2.58;;;;;;;10.27;75.40;98316.03;5105918;28;20055;-85
2022/10/10 01:10:58;;;;;;;6.20;2.40;;;;;;;10.31;74.56;98308.56;5101960;28;20561;-85
2022/10/10 01:14:07;;;;;;;3.20;2.15;;;;;;;10.34;75.19;98316.88;5103050;28;20097;-85
2022/10/10 01:16:57;;;;;;;4.57;2.58;;;;;;;10.33;75.48;98315.25;5107026;28;20413;-86
2022/10/10 01:19:22;;;;;;;4.30;2.72;;;;;;;10.42;75.04;98305.41;5107412;28;20114;-86
2022/10/10 01:22:12;;;;;;;2.58;2.22;;;;;;;10.40;74.17;98305.63;5101467;27;20173;-85
2022/10/10 01:24:57;;;;;;;3.38;2.33;;;;;;;10.39;74.65;98298.75;5122875;27;20559;-85
2022/10/10 01:27:50;;;;;;;4.80;2.13;;;;;;;10.34;74.99;98298.53;5106530;28;20028;-85
2022/10/10 01:30:21;;;;;;;3.17;2.35;;;;;;;10.27;75.49;98302.94;5104627;28;20102;-86
2022/10/10 01:32:49;;;;;;;2.85;2.20;;;;;;;10.26;75.01;98290.81;5102344;28;20036;-86
2022/10/10 01:35:37;;;;;;;4.07;2.38;;;;;;;10.27;75.04;98302.13;5104820;28;20039;-85
2022/10/10 01:38:33;;;;;;;3.88;2.40;;;;;;;10.24;75.79;98300.66;5102976;28;20043;-86
2022/10/10 01:41:20;;;;;;;5.10;2.60;;;;;;;10.30;76.06;98304.34;5121066;27;20032;-86
2022/10/10 01:43:52;;;;;;;3.35;2.58;;;;;;;10.31;75.68;98305.94;5104185;28;20027;-86
2022/10/10 01:46:18;;;;;;;4.95;2.50;;;;;;;10.28;74.46;98299.28;5104057;28;20059;-85
2022/10/10 01:48:51;;;;;;;5.25;2.75;;;;;;;10.17;75.04;98284.06;5105922;28;20081;-86
2022/10/10 01:51:33;;;;;;;3.35;2.20;;;;;;;10.27;74.84;98294.25;5101998;28;20443;-85
2022/10/10 01:54:45;;;;;;;4.20;2.65;;;;;;;10.14;75.09;98290.50;5107099;28;20031;-86
2022/10/10 01:57:23;;;;;;;3.53;2.42;;;;;;;10.03;75.32;98287.63;5105304;28;20031;-86
2022/10/10 02:00:13;;;;;;;4.28;2.40;;;;;;;10.07;76.70;98292.25;5101760;28;20042;-85
2022/10/10 02:02:46;;;;;;;4.35;2.65;;;;;;;10.02;76.10;98286.00;5107917;28;20039;-85
2022/10/10 02:05:32;;;;;;;5.70;2.70;;;;;;;10.04;76.02;98284.00;5104798;28;20050;-86
2022/10/10 02:08:07;;;;;;;3.72;2.50;;;;;;;10.04;76.40;98278.75;5104379;28;20039;-85
2022/10/10 02:10:46;;;;;;;3.20;2.40;;;;;;;10.02;75.58;98271.09;5103738;28;20483;-86
2022/10/10 02:13:14;;;;;;;4.13;2.45;;;;;;;9.93;75.95;98267.78;5106523;28;20063;-85
2022/10/10 02:15:48;;;;;;;3.50;2.42;;;;;;;9.96;75.43;98279.72;5106165;28;20441;-85
2022/10/10 02:18:19;;;;;;;3.90;2.40;;;;;;;9.96;76.03;98265.81;5104396;28;20023;-85
2022/10/10 02:20:45;;;;;;;2.60;2.13;;;;;;;9.98;76.28;98269.03;5105316;28;20036;-86
2022/10/10 02:23:16;;;;;;;2.95;2.30;;;;;;;10.00;76.13;98282.75;5105877;28;20042;-85
2022/10/10 02:25:48;;;;;;;3.35;2.58;;;;;;;9.98;75.99;98271.66;5105141;28;20081;-86
2022/10/10 02:28:31;;;;;;;3.95;2.50;;;;;;;10.00;75.50;98277.50;5102171;28;20768;-85
2022/10/10 02:31:03;;;;;;;4.25;2.40;;;;;;;10.00;75.77;98269.63;5100989;28;20035;-85
2022/10/10 02:33:43;;;;;;;3.47;2.33;;;;;;;9.96;75.65;98266.63;5099710;28;20046;-85
2022/10/10 02:36:10;;;;;;;8.77;2.57;;;;;;;9.92;75.58;98260.13;5102056;28;20145;-86
2022/10/10 02:38:37;;;;;;;3.78;2.67;;;;;;;9.88;75.79;98259.69;5103742;28;20678;-86
2022/10/10 02:41:07;;;;;;;4.93;2.40;;;;;;;9.87;75.97;98258.06;5103294;28;20030;-86
2022/10/10 02:43:35;;;;;;;4.60;2.53;;;;;;;9.86;76.20;98255.66;5104445;28;20028;-86
2022/10/10 02:46:06;;;;;;;5.38;2.53;;;;;;;9.72;75.79;98241.66;5104450;28;20049;-86
2022/10/10 02:48:34;;;;;;;;;;;;;;;9.88;76.64;98264.94;5101637;28;20032;-86
2022/10/10 02:50:59;;;;;;;4.60;2.85;;;;;;;9.87;76.42;98262.50;5101082;28;19920;-86
2022/10/10 02:53:25;;;;;;;4.88;2.60;;;;;;;9.88;76.11;98262.31;5103881;28;20115;-85
2022/10/10 02:55:50;;;;;;;5.80;2.65;;;;;;;9.87;75.86;98257.25;5102925;28;20039;-85
2022/10/10 02:58:17;;;;;;;3.22;2.50;;;;;;;9.86;75.77;98255.66;5101762;28;20058;-85
2022/10/10 03:00:42;;;;;;;5.38;2.70;;;;;;;9.72;76.14;98249.50;5102851;28;20059;-86
2022/10/10 03:03:07;;;;;;;4.30;2.60;;;;;;;9.74;76.89;98263.22;5108718;28;20101;-86
2022/10/10 03:05:33;;;;;;;3.97;2.45;;;;;;;9.67;77.19;98259.75;5108058;28;20126;-86
2022/10/10 03:07:58;;;;;;;3.35;2.25;;;;;;;9.70;77.03;98264.59;5107071;28;20039;-86
2022/10/10 03:10:24;;;;;;;7.90;2.67;;;;;;;9.64;77.24;98241.78;5101215;28;20032;-85
2022/10/10 03:12:49;;;;;;;5.10;2.85;;;;;;;9.71;76.78;98263.59;5103419;28;20387;-85
2022/10/10 03:15:15;;;;;;;3.95;2.80;;;;;;;9.64;76.92;98252.25;5106553;28;20039;-85
2022/10/10 03:17:41;;;;;;;5.60;2.63;;;;;;;9.56;76.93;98247.97;5103255;28;20387;-85
2022/10/10 03:20:08;;;;;;;5.00;2.63;;;;;;;9.47;76.70;98264.78;5103092;28;20394;-85
2022/10/10 03:22:33;;;;;;;3.47;2.75;;;;;;;9.39;76.63;98255.28;5100174;28;20169;-85
2022/10/10 03:24:59;;;;;;;4.78;2.67;;;;;;;9.30;77.14;98251.19;5102355;28;20118;-86
2022/10/10 03:27:24;;;;;;;5.78;2.92;;;;;;;9.23;77.27;98263.38;5102402;28;20693;-85
2022/10/10 03:29:49;;;;;;;5.13;2.85;;;;;;;9.17;77.58;98243.19;5105831;28;20613;-85
2022/10/10 03:32:15;;;;;;;4.03;2.65;;;;;;;9.16;77.84;98257.25;5106614;28;20035;-85
2022/10/10 03:34:40;;;;;;;3.42;2.80;;;;;;;9.20;77.79;98250.66;5104447;28;20111;-86
2022/10/10 03:37:06;;;;;;;4.13;2.85;;;;;;;9.18;78.13;98244.81;5105053;28;20032;-86
2022/10/10 03:39:32;;;;;;;4.47;2.55;;;;;;;9.15;78.40;98258.25;5109538;28;20503;-86
2022/10/10 03:41:57;;;;;;;3.70;2.40;;;;;;;9.19;78.38;98249.06;5118861;27;20040;-85
2022/10/10 03:44:23;;;;;;;3.33;2.70;;;;;;;9.20;78.67;98255.91;5105597;28;20032;-85
2022/10/10 03:46:48;;;;;;;4.18;2.88;;;;;;;9.25;78.62;98253.53;5122836;27;20059;-85
2022/10/10 03:49:13;;;;;;;3.65;2.55;;;;;;;9.23;78.06;98245.03;5107559;28;20471;-85
2022/10/10 03:51:39;;;;;;;5.18;2.80;;;;;;;9.23;77.51;98245.03;5105177;28;20090;-85
2022/10/10 03:54:04;;;;;;;6.28;3.03;;;;;;;9.29;78.08;98244.28;5112090;28;20111;-86
2022/10/10 03:56:30;;;;;;;3.30;2.70;;;;;;;9.21;78.27;98252.28;5106995;28;20567;-86
2022/10/10 03:58:59;;;;;;;3.92;2.40;;;;;;;9.17;78.15;98235.31;5109975;28;20384;-86
2022/10/10 04:01:25;;;;;;;3.92;2.60;;;;;;;9.13;78.08;98243.75;5110676;28;20028;-85
2022/10/10 04:03:51;;;;;;;6.65;2.58;;;;;;;9.12;78.38;98242.94;5109489;28;20027;-85
2022/10/10 04:06:16;;;;;;;4.20;2.67;;;;;;;9.07;79.20;98256.59;5110168;28;20040;-85
2022/10/10 04:08:42;;;;;;;3.35;2.60;;;;;;;9.02;78.93;98238.00;5105237;28;20530;-85
2022/10/10 04:11:08;;;;;;;5.10;3.30;;;;;;;9.17;78.93;98251.03;5111501;28;20034;-85
2022/10/10 04:13:33;;;;;;;4.18;2.63;;;;;;;9.20;79.07;98255.91;5094208;28;20036;-87
2022/10/10 04:15:59;;;;;;;3.42;2.70;;;;;;;9.18;79.05;98247.44;5112587;28;20120;-88
2022/10/10 04:18:25;;;;;;;5.93;2.72;;;;;;;9.24;79.38;98257.16;5102972;28;20039;-87
2022/10/10 04:20:51;;;;;;;6.03;2.75;;;;;;;9.31;79.50;98250.16;5109315;28;20047;-88
2022/10/10 04:23:16;;;;;;;4.47;2.75;;;;;;;9.34;78.94;98249.78;5112184;28;20028;-88
2022/10/10 04:25:43;;;;;;;4.43;2.80;;;;;;;9.44;78.80;98246.84;5112171;28;20502;-88
2022/10/10 04:28:13;;;;;;;6.95;3.17;;;;;;;9.47;77.94;98250.91;5113910;28;20035;-87
2022/10/10 04:30:39;;;;;;;4.80;2.60;;;;;;;9.49;77.66;98249.72;5103394;28;20051;-87
2022/10/10 04:33:05;;;;;;;4.55;2.72;;;;;;;9.49;77.47;98243.69;5107034;28;20070;-88
2022/10/10 04:35:33;;;;;;;5.07;2.85;;;;;;;9.60;77.85;98251.03;5103829;28;20040;-88
2022/10/10 04:37:59;;;;;;;3.67;2.75;;;;;;;9.52;77.88;98233.63;5099873;28;20081;-87
2022/10/10 04:40:24;;;;;;;5.28;2.72;;;;;;;9.54;78.18;98230.84;5110855;28;20074;-88
2022/10/10 04:42:50;;;;;;;3.45;2.63;;;;;;;9.56;77.91;98239.31;5097276;28;20530;-88
2022/10/10 04:45:15;;;;;;;3.38;2.70;;;;;;;9.55;78.02;98233.25;5109249;28;20390;-85
2022/10/10 04:47:41;;;;;;;4.65;2.85;;;;;;;9.59;77.51;98238.91;5106247;28;20540;-86
2022/10/10 04:50:07;;;;;;;5.00;2.58;;;;;;;9.42;76.81;98237.59;5105975;28;20490;-86
2022/10/10 04:52:32;;;;;;;8.00;3.08;;;;;;;9.43;77.93;98245.25;5102399;28;20035;-85
2022/10/10 04:54:58;;;;;;;5.72;3.22;;;;;;;9.28;77.66;98232.22;5108310;28;20036;-85
2022/10/10 04:57:23;;;;;;;4.13;3.13;;;;;;;9.34;78.48;98239.31;5103542;28;20036;-85
2022/10/10 04:59:49;;;;;;;6.10;2.95;;;;;;;9.34;77.89;98230.66;5107172;28;20834;-85
2022/10/10 05:02:14;;;;;;;4.57;2.97;;;;;;;9.42;78.41;98248.06;5108258;28;20039;-85
2022/10/10 05:04:39;;;;;;;3.47;2.88;;;;;;;9.35;78.02;98246.16;5109639;28;20169;-85
2022/10/10 05:07:05;;;;;;;8.07;3.05;;;;;;;9.32;78.62;98240.50;5106427;28;20031;-85
2022/10/10 05:09:32;;;;;;;5.07;3.05;;;;;;;9.36;78.70;98242.56;5107507;28;20055;-86
2022/10/10 05:11:59;;;;;;;4.80;2.75;;;;;;;9.31;77.91;98252.78;5107239;28;20032;-86
2022/10/10 05:14:24;;;;;;;5.13;2.88;;;;;;;9.30;78.52;98253.00;5102238;28;20085;-85
2022/10/10 05:16:50;;;;;;;3.63;2.70;;;;;;;9.25;78.42;98248.31;5100448;28;20422;-85
2022/10/10 05:19:15;;;;;;;4.13;2.78;;;;;;;9.22;78.26;98246.03;5100107;28;20027;-85
2022/10/10 05:21:41;;;;;;;4.68;3.05;;;;;;;9.14;78.39;98243.56;5107613;28;20035;-85
2022/10/10 05:24:06;;;;;;;5.28;3.50;;;;;;;9.15;79.19;98253.03;5106064;27;20081;-85
2022/10/10 05:26:34;;;;;;;4.45;2.72;;;;;;;9.15;79.65;98247.00;5096232;28;20134;-85
2022/10/10 05:29:02;;;;;;;7.45;3.40;;;;;;;9.23;78.93;98260.75;5106580;28;20036;-86
2022/10/10 05:31:28;;;;;;;6.35;3.60;;;;;;;9.20;78.92;98255.91;5105798;28;20104;-87
2022/10/10 05:33:54;;;;;;;4.35;3.22;;;;;;;9.30;79.15;98261.66;5105064;28;20044;-88
2022/10/10 05:36:19;;;;;;;4.32;3.22;;;;;;;9.28;78.16;98263.63;5105183;28;20042;-87
2022/10/10 05:38:45;;;;;;;4.90;3.53;;;;;;;9.24;78.74;98266.81;5112250;28;20031;-87
2022/10/10 05:41:11;;;;;;;4.35;3.28;;;;;;;9.23;78.89;98258.13;5104615;28;20115;-88
2022/10/10 05:43:37;;;;;;;5.97;3.15;;;;;;;9.25;78.67;98266.63;5106497;28;20485;-88
2022/10/10 05:46:04;;;;;;;9.00;3.88;;;;;;;9.28;78.95;98268.84;5112520;28;20039;-88
2022/10/10 05:48:30;;;;;;;5.03;3.20;;;;;;;9.32;78.47;98264.88;5103918;28;20036;-88
2022/10/10 05:50:58;;;;;;;6.47;3.25;;;;;;;9.37;78.61;98269.56;5111396;28;20491;-87
2022/10/10 05:53:26;;;;;;;4.50;3.00;;;;;;;9.36;78.31;98271.38;5099479;28;20027;-88
2022/10/10 05:55:51;;;;;;;4.10;3.55;;;;;;;9.38;77.87;98269.38;5109164;28;20040;-88
2022/10/10 05:58:17;;;;;;;4.43;3.22;;;;;;;9.37;78.27;98267.75;5112585;28;20068;-88
2022/10/10 06:00:46;;;;;;;5.32;3.17;;;;;;;9.36;78.62;98276.59;5088807;27;20136;-87
2022/10/10 06:03:15;;;;;;;7.28;3.55;;;;;;;9.34;78.43;98275.97;5107147;28;20031;-88
2022/10/10 06:05:43;;;;;;;6.78;3.25;;;;;;;9.32;78.67;98269.31;5106357;28;20092;-87
2022/10/10 06:08:10;;;;;;;5.40;3.25;;;;;;;9.39;79.27;98276.22;5106876;28;20031;-88
2022/10/10 06:10:42;;;;;;;5.90;3.30;;;;;;;9.38;78.46;98269.38;5098929;28;20036;-88
2022/10/10 06:13:09;;;;;;;4.97;3.17;;;;;;;9.35;78.07;98271.53;5106395;28;20047;-87
2022/10/10 06:15:35;;;;;;;4.28;3.00;;;;;;;9.38;78.70;98258.88;5103064;28;20040;-88
2022/10/10 06:18:02;;;;;;;6.32;3.20;;;;;;;9.32;78.51;98269.31;5108082;28;20039;-88
2022/10/10 06:20:28;;;;;;;3.65;3.05;;;;;;;9.33;79.10;98265.69;5110643;28;20031;-89
2022/10/10 06:22:55;;;;;;;5.20;3.20;;;;;;;9.31;78.48;98267.69;5109703;28;20062;-87
2022/10/10 06:25:20;;;;;;;4.95;3.47;;;;;;;9.24;79.59;98261.59;5103091;28;20118;-89
2022/10/10 06:27:46;;;;;;;4.82;3.47;;;;;;;9.33;79.60;98269.09;5117938;27;20750;-89
2022/10/10 06:30:12;;;;;;;3.60;3.10;;;;;;;9.30;79.31;98268.69;5101050;28;20028;-88
2022/10/10 06:32:37;;;;;;;4.93;3.22;;;;;;;9.29;78.83;98267.84;5090365;28;20051;-88
2022/10/10 06:35:11;;;;;;;3.88;3.42;;;;;;;9.34;79.19;98280.38;5109828;28;20645;-88
2022/10/10 06:37:37;;;;;;;4.38;3.45;;;;;;;9.38;80.07;98279.03;5095543;28;20059;-88
2022/10/10 06:40:03;;;;;;;6.65;3.72;;;;;;;9.55;79.32;98287.44;5115606;27;20027;-89
2022/10/10 06:42:28;;;;;;;5.50;3.47;;;;;;;9.70;78.21;98282.91;5100922;28;20028;-88
2022/10/10 06:45:02;;;;;;;7.15;3.28;;;;;;;9.75;78.56;98285.78;5111948;28;20032;-88
2022/10/10 06:47:29;;;;;;;6.40;3.28;;;;;;;9.87;78.31;98305.22;5096124;28;20057;-88
2022/10/10 06:49:57;;;;;;;5.15;3.65;;;;;;;9.84;78.60;98295.13;5111666;28;20433;-88
2022/10/10 06:52:23;;;;;;;3.88;3.35;;;;;;;9.78;78.91;98289.84;5100988;28;20032;-88
2022/10/10 06:54:48;;;;;;;8.43;3.50;;;;;;;9.81;79.21;98297.31;5107052;28;20042;-85
2022/10/10 06:57:14;;;;;;;6.07;3.70;;;;;;;9.85;78.71;98294.13;5106018;28;20040;-85
2022/10/10 06:59:39;;;;;;;7.60;3.85;;;;;;;9.98;78.70;98296.03;5107293;28;20042;-85
2022/10/10 07:02:05;;;;;;;5.28;3.35;;;;;;;10.03;76.88;98282.38;5097889;28;20502;-83
2022/10/10 07:04:31;;;;;;;4.35;3.33;;;;;;;10.27;77.54;98291.63;5102732;28;20124;-85
2022/10/10 07:06:57;;;;;;;6.25;4.00;;;;;;;10.46;76.51;98298.78;5105222;28;20046;-85
2022/10/10 07:09:23;;;;;;;4.93;3.72;;;;;;;10.69;76.41;98293.25;5104836;28;20091;-84
2022/10/10 07:11:49;;;;;;;5.18;3.80;;;;;;;10.74;75.17;98303.97;5106461;28;20114;-84
2022/10/10 07:14:16;;;;;;;5.22;3.17;;;;;;;10.72;74.48;98285.78;5102118;28;20644;-85
2022/10/10 07:16:42;;;;;;;5.20;3.72;;;;;;;10.96;73.78;98294.97;5106445;28;20050;-84
2022/10/10 07:19:08;;;;;;;6.28;3.70;;;;;;;11.20;74.79;98300.69;5100596;28;20023;-84
2022/10/10 07:21:33;;;;;;;7.95;4.43;;;;;;;11.32;72.28;98304.34;5097361;28;20038;-84
2022/10/10 07:23:59;;;;;;;9.57;5.65;;;;;;;11.41;72.71;98302.38;5100506;28;20040;-84
2022/10/10 07:26:27;;;;;;;14.88;7.22;;;;;;;11.48;72.59;98303.97;5102270;28;20141;-84
2022/10/10 07:28:52;;;;;;;10.32;5.68;;;;;;;11.55;72.22;98309.25;5099361;28;20032;-85
2022/10/10 07:31:18;;;;;;;11.27;6.05;;;;;;;11.42;71.18;98302.16;5103088;28;20027;-84
2022/10/10 07:33:47;;;;;;;9.77;5.07;;;;;;;11.70;71.69;98301.19;5096132;28;20085;-85
2022/10/10 07:36:13;;;;;;;11.32;6.00;;;;;;;11.89;71.73;98310.13;5099729;28;20046;-84
2022/10/10 07:38:39;;;;;;;9.80;4.72;;;;;;;11.84;68.72;98318.59;5099919;28;20054;-83
2022/10/10 07:41:12;;;;;;;9.05;5.32;;;;;;;11.97;69.30;98318.59;5101028;28;20043;-84
2022/10/10 07:43:38;;;;;;;6.13;4.43;;;;;;;11.96;68.30;98309.09;5102124;28;20071;-85
2022/10/10 07:46:11;;;;;;;8.77;4.93;;;;;;;12.16;69.41;98322.22;5099661;28;20027;-84
2022/10/10 07:48:37;;;;;;;6.43;4.43;;;;;;;12.28;68.81;98327.66;5102810;28;20027;-84
2022/10/10 07:51:06;;;;;;;7.07;4.07;;;;;;;12.33;68.25;98327.88;5105317;28;20047;-84
2022/10/10 07:53:31;;;;;;;6.53;4.05;;;;;;;12.42;68.64;98315.31;5106709;28;20040;-84
2022/10/10 07:55:56;;;;;;;5.43;3.75;;;;;;;12.61;68.98;98316.28;5101858;28;20091;-84
2022/10/10 07:58:22;;;;;;;5.13;3.95;;;;;;;12.62;67.28;98325.78;5101939;28;20122;-85
2022/10/10 08:00:47;;;;;;;3.88;3.45;;;;;;;12.73;68.02;98339.09;5103100;28;20075;-85
2022/10/10 08:03:13;;;;;;;5.40;3.42;;;;;;;12.85;67.28;98332.19;5104163;28;20035;-84
2022/10/10 08:05:45;;;;;;;4.82;3.40;;;;;;;13.04;67.17;98335.75;5119160;28;20039;-84
2022/10/10 08:08:12;;;;;;;5.78;4.00;;;;;;;13.13;65.74;98334.50;5118924;28;20036;-84
2022/10/10 08:10:43;;;;;;;4.80;3.67;;;;;;;13.21;66.50;98330.03;5100583;28;20471;-84
2022/10/10 08:13:08;;;;;;;5.70;3.95;;;;;;;13.31;66.20;98325.94;5102784;28;20039;-85
2022/10/10 08:15:34;;;;;;;11.52;3.97;;;;;;;13.15;66.87;98330.84;5101559;28;20046;-84
2022/10/10 08:17:59;;;;;;;5.78;3.55;;;;;;;13.36;67.29;98333.19;5119737;27;20058;-84
2022/10/10 08:20:25;;;;;;;7.43;4.25;;;;;;;13.51;67.05;98331.09;5107577;28;20027;-84
2022/10/10 08:22:50;;;;;;;6.28;4.22;;;;;;;13.72;65.66;98318.56;5106382;28;20032;-83
2022/10/10 08:25:16;;;;;;;5.88;4.32;;;;;;;13.94;65.97;98327.72;5106511;28;20089;-84
2022/10/10 08:27:41;;;;;;;8.75;4.40;;;;;;;13.95;65.44;98321.44;5107133;28;20036;-85
2022/10/10 08:30:07;;;;;;;8.18;4.53;;;;;;;14.08;65.63;98318.66;5107100;28;20040;-84
2022/10/10 08:32:33;;;;;;;7.07;4.85;;;;;;;14.01;64.49;98322.41;5104775;28;20122;-87
2022/10/10 08:34:59;;;;;;;7.60;4.72;;;;;;;14.04;64.78;98321.97;5104836;28;20028;-87
2022/10/10 08:37:25;;;;;;;7.22;4.60;;;;;;;14.15;65.39;98329.16;5106633;28;20081;-88
2022/10/10 08:39:50;;;;;;;8.25;5.00;;;;;;;14.28;65.78;98325.63;5106470;28;20084;-88
2022/10/10 08:42:33;;;;;;;6.60;4.75;;;;;;;14.37;65.03;98319.03;5109031;28;20051;-89
2022/10/10 08:45:10;;;;;;;8.63;5.05;;;;;;;14.57;64.61;98327.56;5101588;28;20028;-89
2022/10/10 08:47:55;;;;;;;8.65;5.65;;;;;;;14.68;64.37;98326.03;5098687;28;20031;-89
2022/10/10 08:50:28;;;;;;;8.27;5.78;;;;;;;14.65;64.62;98324.66;5111661;27;20039;-88
2022/10/10 08:53:22;;;;;;;7.78;5.30;;;;;;;14.70;64.03;98332.72;5110845;28;20054;-89
2022/10/10 08:55:48;;;;;;;8.32;5.55;;;;;;;14.92;64.39;98337.53;5071914;28;20062;-89
2022/10/10 08:58:41;;;;;;;7.53;5.45;;;;;;;15.10;64.12;98332.22;5087525;28;20076;-89
2022/10/10 09:01:14;;;;;;;8.70;5.68;;;;;;;15.19;63.66;98335.38;5100775;28;20043;-88
2022/10/10 09:03:51;;;;;;;8.68;5.57;;;;;;;15.31;64.04;98325.69;5097727;28;20112;-85
2022/10/10 09:07:14;;;;;;;7.63;5.22;;;;;;;15.53;64.22;98334.72;5099346;28;20051;-86
2022/10/10 09:10:14;;;;;;;8.43;6.10;;;;;;;15.46;63.05;98331.34;5073909;28;20129;-86
2022/10/10 09:13:36;;;;;;;8.80;5.55;;;;;;;15.38;65.57;98344.09;5106041;28;20051;-86
2022/10/10 09:16:18;;;;;;;9.65;5.90;;;;;;;14.85;65.62;98331.53;5108225;28;20024;-85
2022/10/10 09:19:11;;;;;;;7.90;5.90;;;;;;;14.80;65.76;98326.09;5103956;28;20035;-85
2022/10/10 09:21:40;;;;;;;13.13;8.30;;;;;;;14.89;65.68;98340.63;5107408;28;20442;-89
2022/10/10 09:24:20;;;;;;;8.63;6.18;;;;;;;14.90;65.36;98329.03;5098744;28;20036;-88
2022/10/10 09:26:59;;;;;;;10.23;6.57;;;;;;;15.08;64.04;98331.66;5109074;28;20031;-87
2022/10/10 09:29:37;;;;;;;11.20;6.35;;;;;;;15.27;65.53;98309.44;5107894;28;20039;-88
2022/10/10 09:32:13;;;;;;;7.97;5.72;;;;;;;15.33;65.19;98333.38;5106490;28;20032;-89
2022/10/10 09:34:53;;;;;;;9.73;5.93;;;;;;;15.50;66.56;98324.59;5096192;28;20062;-88
2022/10/10 09:37:37;;;;;;;8.18;5.88;;;;;;;15.66;64.99;98330.31;5101982;28;20031;-88
2022/10/10 09:40:33;;;;;;;10.02;6.35;;;;;;;15.78;64.07;98326.66;5108864;28;20126;-89
2022/10/10 09:43:13;;;;;;;11.82;6.82;;;;;;;15.77;63.40;98313.63;5103787;28;20133;-88
2022/10/10 09:45:49;;;;;;;9.57;6.55;;;;;;;15.78;64.29;98321.38;5096218;28;20043;-88
2022/10/10 09:48:16;;;;;;;10.60;6.45;;;;;;;15.92;64.42;98316.66;5102018;28;20036;-88
2022/10/10 09:50:41;;;;;;;9.57;7.00;;;;;;;15.97;64.46;98313.34;5103192;28;20031;-89
2022/10/10 09:53:14;;;;;;;9.77;6.88;;;;;;;16.12;63.49;98320.81;5107328;28;20023;-90
2022/10/10 09:55:41;;;;;;;11.60;7.18;;;;;;;16.17;64.74;98315.63;5101054;28;20514;-88
2022/10/10 09:58:47;;;;;;;9.45;6.82;;;;;;;16.25;64.12;98323.22;5107373;28;20027;-85
2022/10/10 10:01:24;;;;;;;8.50;6.25;;;;;;;16.23;64.09;98323.47;5058877;28;20039;-84
2022/10/10 10:04:16;;;;;;;11.60;6.95;;;;;;;16.14;65.26;98327.50;5104656;28;20028;-85
2022/10/10 10:06:46;;;;;;;8.45;6.63;;;;;;;16.47;64.20;98323.44;5103772;28;20486;-85
2022/10/10 10:09:18;;;;;;;12.40;6.85;;;;;;;16.62;63.63;98325.63;5104033;28;20035;-85
2022/10/10 10:11:48;;;;;;;12.50;7.00;;;;;;;16.63;63.70;98298.91;5104571;28;20112;-85
2022/10/10 10:14:29;;;;;;;8.05;6.68;;;;;;;16.78;63.26;98311.69;5104018;28;20043;-85
2022/10/10 10:17:15;;;;;;;9.48;7.07;;;;;;;16.66;63.63;98311.69;5099383;28;20031;-84
2022/10/10 10:19:45;;;;;;;10.45;6.57;;;;;;;16.56;63.46;98320.22;5104195;28;20088;-84
2022/10/10 10:22:22;;;;;;;10.95;6.90;;;;;;;16.77;64.30;98326.78;5103466;28;20092;-85
2022/10/10 10:24:47;;;;;;;12.10;6.93;;;;;;;16.83;63.82;98317.09;5101558;28;20036;-84
2022/10/10 10:27:21;;;;;;;14.18;7.60;;;;;;;16.93;63.69;98324.44;5098686;28;20841;-84
2022/10/10 10:29:53;;;;;;;8.32;6.78;;;;;;;16.98;63.78;98320.06;5100412;28;20032;-85
2022/10/10 10:32:48;;;;;;;9.80;7.03;;;;;;;17.21;62.50;98321.78;5099396;28;20071;-84
2022/10/10 10:35:31;;;;;;;12.32;7.10;;;;;;;17.27;60.97;98320.03;5099497;28;20032;-84
2022/10/10 10:38:30;;;;;;;11.43;6.90;;;;;;;17.21;63.17;98328.94;5093965;28;20024;-84
2022/10/10 10:41:25;;;;;;;12.00;6.47;;;;;;;17.34;62.16;98329.47;5099985;28;20429;-84
2022/10/10 10:44:01;;;;;;;8.98;6.45;;;;;;;17.34;62.66;98321.53;5101740;28;20067;-85
2022/10/10 10:46:57;;;;;;;11.45;6.68;;;;;;;17.26;63.00;98316.59;5103408;28;20112;-84
2022/10/10 10:49:51;;;;;;;11.07;7.63;;;;;;;17.17;60.49;98322.53;5103276;28;20027;-84
2022/10/10 10:52:47;;;;;;;10.55;6.68;;;;;;;17.36;63.31;98335.34;5102567;28;20037;-85
2022/10/10 10:55:48;;;;;;;11.00;6.68;;;;;;;17.79;60.74;98322.59;5119218;27;20039;-84
2022/10/10 10:58:28;;;;;;;11.63;6.50;;;;;;;18.13;60.79;98315.44;5102189;28;20023;-85
2022/10/10 11:01:00;;;;;;;10.40;6.63;;;;;;;18.30;59.38;98316.22;5102141;28;20031;-84
2022/10/10 11:03:51;;;;;;;10.98;6.55;;;;;;;18.34;57.90;98304.03;5103647;28;20372;-84
2022/10/10 11:07:00;;;;;;;9.65;6.53;;;;;;;18.26;58.68;98304.47;5095656;28;20083;-84
2022/10/10 11:09:37;;;;;;;7.28;6.38;;;;;;;17.99;60.53;98303.53;5101494;28;20032;-85
2022/10/10 11:12:31;;;;;;;7.25;5.80;;;;;;;18.10;60.85;98310.59;5103456;28;20058;-84
2022/10/10 11:15:33;;;;;;;10.30;6.05;;;;;;;18.24;60.36;98301.25;5100955;28;20088;-84
2022/10/10 11:18:17;;;;;;;8.70;5.50;;;;;;;18.49;60.48;98302.66;5102935;28;20032;-85
2022/10/10 11:20:50;;;;;;;8.00;5.28;;;;;;;18.45;59.01;98303.13;5101248;28;20075;-85
2022/10/10 11:23:40;;;;;;;8.48;5.03;;;;;;;18.41;59.14;98302.03;5102300;28;20031;-84
2022/10/10 11:26:19;;;;;;;8.18;5.60;;;;;;;18.31;59.38;98291.28;5101059;28;20103;-84
2022/10/10 11:28:55;;;;;;;8.95;5.22;;;;;;;18.13;59.58;98283.59;5102460;28;20032;-84
2022/10/10 11:32:22;;;;;;;8.88;5.13;;;;;;;17.84;59.99;98291.63;5100464;28;20106;-84
2022/10/10 11:35:12;;;;;;;6.50;5.30;;;;;;;18.10;60.69;98294.66;5038615;28;20040;-85
2022/10/10 11:37:45;;;;;;;11.03;6.50;;;;;;;18.17;61.25;98295.28;5099024;28;20044;-85
2022/10/10 11:40:31;;;;;;;7.70;5.50;;;;;;;18.47;61.07;98292.25;5102810;28;20426;-85
2022/10/10 11:43:07;;;;;;;8.38;5.57;;;;;;;18.54;59.53;98292.91;5106896;28;20024;-84
2022/10/10 11:45:46;;;;;;;8.25;5.95;;;;;;;18.80;58.56;98293.25;5102243;28;20032;-85
2022/10/10 11:48:40;;;;;;;11.88;6.40;;;;;;;18.84;57.96;98295.16;5102754;28;20032;-83
2022/10/10 11:51:22;;;;;;;9.25;6.20;;;;;;;18.91;59.07;98284.34;5110729;28;20355;-84
2022/10/10 11:53:55;;;;;;;9.07;5.53;;;;;;;19.01;57.93;98299.59;5110691;28;20129;-85
2022/10/10 11:56:30;;;;;;;10.00;5.90;;;;;;;18.93;58.07;98296.31;5106983;28;20060;-84
2022/10/10 11:59:21;;;;;;;7.68;6.13;;;;;;;18.96;57.04;98293.19;5111156;28;20416;-85
2022/10/10 12:01:57;;;;;;;8.23;6.38;;;;;;;18.94;58.40;98297.94;5106851;28;20054;-84